createdAt,value
2022-08-18T00:01:41.753Z,6.60
2022-08-18T00:04:25.195Z,7.53
2022-08-18T00:06:58.401Z,7.80
2022-08-18T00:09:31.534Z,8.40
2022-08-18T00:12:01.946Z,8.32
2022-08-18T00:14:29.570Z,8.43
2022-08-18T00:16:57.548Z,9.20
2022-08-18T00:19:47.043Z,7.50
2022-08-18T00:22:15.789Z,8.85
2022-08-18T00:24:48.256Z,7.55
2022-08-18T00:27:19.670Z,8.80
2022-08-18T00:29:49.824Z,8.50
2022-08-18T00:32:18.530Z,8.95
2022-08-18T00:34:46.216Z,8.77
2022-08-18T00:37:13.705Z,8.85
2022-08-18T00:39:46.378Z,9.60
2022-08-18T00:42:26.946Z,9.38
2022-08-18T00:44:56.867Z,9.10
2022-08-18T00:47:37.062Z,8.25
2022-08-18T00:50:21.369Z,7.78
2022-08-18T00:52:53.602Z,8.23
2022-08-18T00:55:21.426Z,8.13
2022-08-18T00:57:51.552Z,8.00
2022-08-18T01:00:19.567Z,7.60
2022-08-18T01:02:52.837Z,7.80
2022-08-18T01:05:23.527Z,7.72
2022-08-18T01:07:51.646Z,8.20
2022-08-18T01:10:21.257Z,7.55
2022-08-18T01:12:50.976Z,8.18
2022-08-18T01:15:29.151Z,7.88
2022-08-18T01:18:17.724Z,7.97
2022-08-18T01:21:22.723Z,7.80
2022-08-18T01:23:50.781Z,8.10
2022-08-18T01:26:18.816Z,7.85
2022-08-18T01:28:49.544Z,7.60
2022-08-18T01:31:37.743Z,7.07
2022-08-18T01:34:09.819Z,7.45
2022-08-18T01:36:41.508Z,7.57
2022-08-18T01:39:10.713Z,6.60
2022-08-18T01:41:38.797Z,5.57
2022-08-18T01:44:08.854Z,5.35
2022-08-18T01:46:36.582Z,4.65
2022-08-18T01:49:04.488Z,4.90
2022-08-18T01:51:39.709Z,4.05
2022-08-18T01:54:09.147Z,4.32
2022-08-18T01:56:37.186Z,4.55
2022-08-18T01:59:06.557Z,4.28
2022-08-18T02:01:39.019Z,4.30
2022-08-18T02:04:34.353Z,4.28
2022-08-18T02:07:04.233Z,4.40
2022-08-18T02:09:32.008Z,4.65
2022-08-18T02:12:00.199Z,4.40
2022-08-18T02:14:27.785Z,4.05
2022-08-18T02:17:01.366Z,3.90
2022-08-18T02:19:29.858Z,3.53
2022-08-18T02:21:57.347Z,2.80
2022-08-18T02:24:25.091Z,3.00
2022-08-18T02:26:52.524Z,4.10
2022-08-18T02:29:19.991Z,3.00
2022-08-18T02:31:47.496Z,2.08
2022-08-18T02:34:16.065Z,2.92
2022-08-18T02:36:44.290Z,2.95
2022-08-18T02:39:12.166Z,2.88
2022-08-18T02:41:39.696Z,2.95
2022-08-18T02:44:07.709Z,3.38
2022-08-18T02:46:35.537Z,2.63
2022-08-18T02:49:03.837Z,2.65
2022-08-18T02:51:31.381Z,3.25
2022-08-18T02:53:59.741Z,2.80
2022-08-18T02:56:39.918Z,3.03
2022-08-18T02:59:14.762Z,3.75
2022-08-18T03:01:45.091Z,3.15
2022-08-18T03:04:14.487Z,4.57
2022-08-18T03:06:42.355Z,4.57
2022-08-18T03:09:12.148Z,4.97
2022-08-18T03:11:39.800Z,4.13
2022-08-18T03:14:11.120Z,3.72
2022-08-18T03:16:40.578Z,3.13
2022-08-18T03:19:21.171Z,2.60
2022-08-18T03:21:48.728Z,2.50
2022-08-18T03:24:22.735Z,2.35
2022-08-18T03:26:52.067Z,2.28
2022-08-18T03:29:19.778Z,2.00
2022-08-18T03:31:48.923Z,2.22
2022-08-18T03:34:19.865Z,2.33
2022-08-18T03:36:48.001Z,2.60
2022-08-18T03:39:15.531Z,2.22
2022-08-18T03:41:58.022Z,2.28
2022-08-18T03:44:27.967Z,1.88
2022-08-18T03:46:55.476Z,1.88
2022-08-18T03:49:22.934Z,1.90
2022-08-18T03:51:51.812Z,1.50
2022-08-18T03:54:19.599Z,2.53
2022-08-18T03:56:50.791Z,1.85
2022-08-18T03:59:20.204Z,2.15
2022-08-18T04:01:48.780Z,2.20
2022-08-18T04:04:19.167Z,2.10
2022-08-18T04:06:51.918Z,2.28
2022-08-18T04:09:20.411Z,2.22
2022-08-18T04:11:48.190Z,2.30
2022-08-18T04:14:21.297Z,1.73
2022-08-18T04:16:49.357Z,1.83
2022-08-18T04:19:26.507Z,2.78
2022-08-18T04:21:55.556Z,2.28
2022-08-18T04:24:23.079Z,1.98
2022-08-18T04:26:50.833Z,2.08
2022-08-18T04:29:19.803Z,2.20
2022-08-18T04:31:47.895Z,1.80
2022-08-18T04:34:15.755Z,1.77
2022-08-18T04:36:43.728Z,2.15
2022-08-18T04:39:12.166Z,1.95
2022-08-18T04:41:40.639Z,1.85
2022-08-18T04:44:09.325Z,1.65
2022-08-18T04:46:41.386Z,1.35
2022-08-18T04:49:10.423Z,1.60
2022-08-18T04:52:32.064Z,1.67
2022-08-18T04:54:28.254Z,1.25
2022-08-18T04:56:55.897Z,1.50
2022-08-18T04:59:23.356Z,1.40
2022-08-18T05:01:50.817Z,1.52
2022-08-18T05:04:18.796Z,1.92
2022-08-18T05:06:46.685Z,1.48
2022-08-18T05:09:16.368Z,1.10
2022-08-18T05:11:50.801Z,1.95
2022-08-18T05:14:18.977Z,1.30
2022-08-18T05:16:48.694Z,1.15
2022-08-18T05:19:23.102Z,1.33
2022-08-18T05:21:52.260Z,1.67
2022-08-18T05:24:21.527Z,1.30
2022-08-18T05:26:49.689Z,1.15
2022-08-18T05:29:18.640Z,1.13
2022-08-18T05:31:47.944Z,1.70
2022-08-18T05:34:16.029Z,1.30
2022-08-18T05:36:49.427Z,2.28
2022-08-18T05:39:19.972Z,1.90
2022-08-18T05:42:07.690Z,1.70
2022-08-18T05:44:41.672Z,1.58
2022-08-18T05:47:21.074Z,1.98
2022-08-18T05:49:49.274Z,1.15
2022-08-18T05:52:20.419Z,1.25
2022-08-18T05:55:07.904Z,1.15
2022-08-18T05:57:40.934Z,1.52
2022-08-18T06:00:11.030Z,2.38
2022-08-18T06:02:53.185Z,2.28
2022-08-18T06:05:24.860Z,2.22
2022-08-18T06:07:55.721Z,1.83
2022-08-18T06:10:23.796Z,2.22
2022-08-18T06:12:53.677Z,2.95
2022-08-18T06:15:39.867Z,1.73
2022-08-18T06:18:37.473Z,2.30
2022-08-18T06:23:51.081Z,1.42
2022-08-18T06:26:24.842Z,1.85
2022-08-18T06:28:55.374Z,1.73
2022-08-18T06:31:32.200Z,1.30
2022-08-18T06:34:12.467Z,2.25
2022-08-18T06:36:52.355Z,2.13
2022-08-18T06:39:19.846Z,1.58
2022-08-18T06:41:51.687Z,2.03
2022-08-18T06:44:28.765Z,1.90
2022-08-18T06:47:04.416Z,2.65
2022-08-18T06:49:36.746Z,1.98
2022-08-18T06:52:22.280Z,2.78
2022-08-18T06:54:51.609Z,1.67
2022-08-18T06:57:24.119Z,1.50
2022-08-18T07:00:06.280Z,1.58
2022-08-18T07:02:43.026Z,1.95
2022-08-18T07:05:21.224Z,1.95
2022-08-18T07:08:04.560Z,2.45
2022-08-18T07:10:34.632Z,2.45
2022-08-18T07:13:08.577Z,1.90
2022-08-18T07:15:36.486Z,2.33
2022-08-18T07:18:07.589Z,2.15
2022-08-18T07:20:55.191Z,1.60
2022-08-18T07:23:27.704Z,2.10
2022-08-18T07:26:02.824Z,2.08
2022-08-18T07:28:33.004Z,2.13
2022-08-18T07:31:19.726Z,1.75
2022-08-18T07:33:50.611Z,2.17
2022-08-18T07:36:18.185Z,1.65
2022-08-18T07:38:45.704Z,2.25
2022-08-18T07:41:33.424Z,1.90
2022-08-18T07:44:18.496Z,2.30
2022-08-18T07:47:00.589Z,2.35
2022-08-18T07:49:30.496Z,1.88
2022-08-18T07:52:03.985Z,1.75
2022-08-18T07:54:50.824Z,2.08
2022-08-18T07:59:48.494Z,2.08
2022-08-18T08:02:34.860Z,3.65
2022-08-18T08:05:05.271Z,3.28
2022-08-18T08:07:43.984Z,2.33
2022-08-18T08:10:19.033Z,2.72
2022-08-18T08:13:09.436Z,1.90
2022-08-18T08:15:50.983Z,1.90
2022-08-18T08:18:24.108Z,2.63
2022-08-18T08:21:07.150Z,2.97
2022-08-18T08:23:53.370Z,2.17
2022-08-18T08:26:53.752Z,2.13
2022-08-18T08:29:36.415Z,3.40
2022-08-18T08:32:16.205Z,2.55
2022-08-18T08:34:46.696Z,3.03
2022-08-18T08:37:17.002Z,2.45
2022-08-18T08:40:00.345Z,2.13
2022-08-18T08:43:06.964Z,2.35
2022-08-18T08:45:36.352Z,2.58
2022-08-18T08:48:15.318Z,2.33
2022-08-18T08:50:46.111Z,1.73
2022-08-18T08:53:33.253Z,2.45
2022-08-18T08:56:07.343Z,2.42
2022-08-18T08:58:40.827Z,2.03
2022-08-18T09:01:11.427Z,3.22
2022-08-18T09:03:59.255Z,2.63
2022-08-18T09:06:40.707Z,2.63
2022-08-18T09:09:08.281Z,2.08
2022-08-18T09:11:58.671Z,2.67
2022-08-18T09:15:03.236Z,3.05
2022-08-18T09:17:42.395Z,2.30
2022-08-18T09:20:17.034Z,2.65
2022-08-18T09:22:49.719Z,2.20
2022-08-18T09:25:35.239Z,1.98
2022-08-18T09:28:13.764Z,2.45
2022-08-18T09:30:47.545Z,2.10
2022-08-18T09:33:34.548Z,2.88
2022-08-18T09:36:20.372Z,2.13
2022-08-18T09:39:12.805Z,1.77
2022-08-18T09:42:11.036Z,2.15
2022-08-18T09:44:42.826Z,3.00
2022-08-18T09:47:11.193Z,2.45
2022-08-18T09:49:47.847Z,2.58
2022-08-18T09:52:26.469Z,2.50
2022-08-18T09:55:00.395Z,2.43
2022-08-18T09:57:42.015Z,1.83
2022-08-18T10:00:14.036Z,1.73
2022-08-18T10:02:47.595Z,2.72
2022-08-18T10:05:20.146Z,2.00
2022-08-18T10:07:50.044Z,1.88
2022-08-18T10:13:27.604Z,2.08
2022-08-18T10:16:18.205Z,2.80
2022-08-18T10:19:04.184Z,2.97
2022-08-18T10:21:53.737Z,2.70
2022-08-18T10:24:35.063Z,3.17
2022-08-18T10:27:09.849Z,3.10
2022-08-18T10:29:44.424Z,3.65
2022-08-18T10:32:15.029Z,3.53
2022-08-18T10:34:51.680Z,2.58
2022-08-18T10:37:20.294Z,2.95
2022-08-18T10:39:59.244Z,2.42
2022-08-18T10:45:35.380Z,3.03
2022-08-18T10:50:31.284Z,3.72
2022-08-18T10:56:02.597Z,3.45
2022-08-18T10:58:58.214Z,2.90
2022-08-18T11:01:44.291Z,2.40
2022-08-18T11:04:32.684Z,3.47
2022-08-18T11:07:18.317Z,2.60
2022-08-18T11:09:57.205Z,2.95
2022-08-18T11:12:37.711Z,2.30
2022-08-18T11:15:22.232Z,2.30
2022-08-18T11:17:57.714Z,2.25
2022-08-18T11:20:30.605Z,2.85
2022-08-18T11:23:00.689Z,2.63
2022-08-18T11:28:20.573Z,3.03
2022-08-18T11:30:53.397Z,2.80
2022-08-18T11:36:09.465Z,2.60
2022-08-18T11:38:39.419Z,2.90
2022-08-18T11:41:13.851Z,2.55
2022-08-18T11:43:43.182Z,2.90
2022-08-18T11:49:15.603Z,3.03
2022-08-18T11:51:54.865Z,3.35
2022-08-18T11:54:24.621Z,4.38
2022-08-18T11:56:53.079Z,4.15
2022-08-18T11:59:53.749Z,3.50
2022-08-18T12:02:20.928Z,4.03
2022-08-18T12:04:53.287Z,3.92
2022-08-18T12:07:35.305Z,4.72
2022-08-18T12:10:16.447Z,4.88
2022-08-18T12:12:51.967Z,5.07
2022-08-18T12:15:22.799Z,3.80
2022-08-18T12:17:52.826Z,5.60
2022-08-18T12:20:21.671Z,3.65
2022-08-18T12:22:49.999Z,3.95
2022-08-18T12:25:25.179Z,4.03
2022-08-18T12:27:54.180Z,5.10
2022-08-18T12:30:21.925Z,4.85
2022-08-18T12:32:56.425Z,5.25
2022-08-18T12:35:38.442Z,4.90
2022-08-18T12:38:12.987Z,4.70
2022-08-18T12:40:42.910Z,8.23
2022-08-18T12:43:10.859Z,7.32
2022-08-18T12:45:39.233Z,7.25
2022-08-18T12:48:08.608Z,6.43
2022-08-18T12:53:30.682Z,5.70
2022-08-18T12:56:13.215Z,5.45
2022-08-18T12:58:41.641Z,4.28
2022-08-18T13:01:09.413Z,3.95
2022-08-18T13:03:37.972Z,3.92
2022-08-18T13:06:10.323Z,3.55
2022-08-18T13:08:49.938Z,3.05
2022-08-18T13:11:26.746Z,3.30
2022-08-18T13:13:57.197Z,2.90
2022-08-18T13:16:39.233Z,3.80
2022-08-18T13:19:14.590Z,2.40
2022-08-18T13:21:43.313Z,3.08
2022-08-18T13:24:13.002Z,3.30
2022-08-18T13:26:43.302Z,3.25
2022-08-18T13:29:14.230Z,2.80
2022-08-18T13:31:45.616Z,3.13
2022-08-18T13:34:24.295Z,2.85
2022-08-18T13:36:52.068Z,2.95
2022-08-18T13:39:22.685Z,4.35
2022-08-18T13:41:52.785Z,3.13
2022-08-18T13:44:21.265Z,247.60
2022-08-18T13:46:49.504Z,694.28
2022-08-18T13:49:18.643Z,274.15
2022-08-18T13:51:52.824Z,184.15
2022-08-18T13:54:31.062Z,161.32
2022-08-18T13:57:00.341Z,92.47
2022-08-18T13:59:31.843Z,89.75
2022-08-18T14:02:00.766Z,78.25
2022-08-18T14:04:29.756Z,62.00
2022-08-18T14:06:59.825Z,53.22
2022-08-18T14:09:37.397Z,45.25
2022-08-18T14:12:07.360Z,43.22
2022-08-18T14:14:51.905Z,37.53
2022-08-18T14:17:20.210Z,35.30
2022-08-18T14:20:10.342Z,33.33
2022-08-18T14:23:01.392Z,27.60
2022-08-18T14:25:49.704Z,26.90
2022-08-18T14:28:24.793Z,19.92
2022-08-18T14:30:54.695Z,21.38
2022-08-18T14:33:49.462Z,17.73
2022-08-18T14:36:12.377Z,18.75
2022-08-18T14:38:40.257Z,21.77
2022-08-18T14:41:10.741Z,21.02
2022-08-18T14:44:04.540Z,21.67
2022-08-18T14:46:30.564Z,29.08
2022-08-18T14:49:04.002Z,22.50
2022-08-18T14:51:33.425Z,22.75
2022-08-18T14:54:04.578Z,21.73
2022-08-18T14:56:33.859Z,21.05
2022-08-18T14:59:08.081Z,16.90
2022-08-18T15:01:42.533Z,17.38
2022-08-18T15:04:19.329Z,19.77
2022-08-18T15:06:56.125Z,17.23
2022-08-18T15:09:30.082Z,13.52
2022-08-18T15:11:58.642Z,14.40
2022-08-18T15:14:33.586Z,12.60
2022-08-18T15:17:03.004Z,13.33
2022-08-18T15:20:00.447Z,11.27
2022-08-18T15:22:45.613Z,11.80
2022-08-18T15:25:31.857Z,10.45
2022-08-18T15:30:27.310Z,9.40
2022-08-18T15:32:55.498Z,9.50
2022-08-18T15:35:23.052Z,7.82
2022-08-18T15:37:51.618Z,8.75
2022-08-18T15:40:30.973Z,6.70
2022-08-18T15:43:09.763Z,6.40
2022-08-18T15:45:43.522Z,5.60
2022-08-18T15:48:25.154Z,6.55
2022-08-18T15:50:53.595Z,6.03
2022-08-18T15:53:22.694Z,4.80
2022-08-18T15:55:50.544Z,4.68
2022-08-18T15:58:22.365Z,5.45
2022-08-18T16:00:54.695Z,5.85
2022-08-18T16:03:22.204Z,4.63
2022-08-18T16:05:52.901Z,4.72
2022-08-18T16:08:25.025Z,4.95
2022-08-18T16:10:53.650Z,4.50
2022-08-18T16:13:21.329Z,4.40
2022-08-18T16:15:50.429Z,4.30
2022-08-18T16:18:18.877Z,3.95
2022-08-18T16:20:46.448Z,4.20
2022-08-18T16:23:13.947Z,4.00
2022-08-18T16:25:41.912Z,3.80
2022-08-18T16:28:10.044Z,4.40
2022-08-18T16:30:37.687Z,16.90
2022-08-18T16:33:06.577Z,8.25
2022-08-18T16:35:34.602Z,10.18
2022-08-18T16:38:06.556Z,5.90
2022-08-18T16:40:34.049Z,5.25
2022-08-18T16:43:01.617Z,4.88
2022-08-18T16:45:32.067Z,4.75
2022-08-18T16:48:00.861Z,6.40
2022-08-18T16:50:28.403Z,5.20
2022-08-18T16:52:56.696Z,5.47
2022-08-18T16:55:24.217Z,5.47
2022-08-18T16:58:14.895Z,4.82
2022-08-18T17:01:01.670Z,5.05
2022-08-18T17:03:48.021Z,4.20
2022-08-18T17:06:18.341Z,3.85
2022-08-18T17:08:45.859Z,3.95
2022-08-18T17:11:16.246Z,3.35
2022-08-18T17:13:44.413Z,3.38
2022-08-18T17:16:12.278Z,3.33
2022-08-18T17:18:40.255Z,3.58
2022-08-18T17:21:08.697Z,2.72
2022-08-18T17:23:38.887Z,2.42
2022-08-18T17:26:08.247Z,2.95
2022-08-18T17:28:43.955Z,3.30
2022-08-18T17:31:22.683Z,3.03
2022-08-18T17:33:50.305Z,3.13
2022-08-18T17:36:21.862Z,2.90
2022-08-18T17:38:58.224Z,2.92
2022-08-18T17:41:26.517Z,3.10
2022-08-18T17:44:00.919Z,2.67
2022-08-18T17:46:32.277Z,3.17
2022-08-18T17:49:01.715Z,3.42
2022-08-18T17:51:43.422Z,3.13
2022-08-18T17:54:36.699Z,3.80
2022-08-18T17:57:15.005Z,3.65
2022-08-18T17:59:52.022Z,3.03
2022-08-18T18:02:30.284Z,2.95
2022-08-18T18:04:58.716Z,3.00
2022-08-18T18:07:30.986Z,2.60
2022-08-18T18:10:01.785Z,2.95
2022-08-18T18:12:30.488Z,2.55
2022-08-18T18:14:58.848Z,3.00
2022-08-18T18:17:32.570Z,3.53
2022-08-18T18:20:15.601Z,2.63
2022-08-18T18:22:44.093Z,2.67
2022-08-18T18:25:13.200Z,2.97
2022-08-18T18:27:43.129Z,2.95
2022-08-18T18:30:27.878Z,3.10
2022-08-18T18:32:59.847Z,2.95
2022-08-18T18:35:27.935Z,3.88
2022-08-18T18:38:01.012Z,4.40
2022-08-18T18:40:31.097Z,3.90
2022-08-18T18:42:59.538Z,4.05
2022-08-18T18:45:31.177Z,4.60
2022-08-18T18:47:58.638Z,4.28
2022-08-18T18:50:53.001Z,4.22
2022-08-18T18:53:29.813Z,4.18
2022-08-18T18:56:18.966Z,4.70
2022-08-18T18:58:49.572Z,4.20
2022-08-18T19:01:36.206Z,4.65
2022-08-18T19:06:49.852Z,4.18
2022-08-18T19:09:20.284Z,5.97
2022-08-18T19:11:57.840Z,4.88
2022-08-18T19:14:29.681Z,6.53
2022-08-18T19:17:00.427Z,5.97
2022-08-18T19:19:37.738Z,8.52
2022-08-18T19:22:15.952Z,8.07
2022-08-18T19:24:53.540Z,9.52
2022-08-18T19:27:34.309Z,8.85
2022-08-18T19:30:04.261Z,7.65
2022-08-18T19:32:37.714Z,7.72
2022-08-18T19:35:12.188Z,7.32
2022-08-18T19:37:53.984Z,7.20
2022-08-18T19:40:28.242Z,6.43
2022-08-18T19:43:07.489Z,7.90
2022-08-18T19:45:55.690Z,7.63
2022-08-18T19:48:29.391Z,7.65
2022-08-18T19:51:16.158Z,7.82
2022-08-18T19:53:59.115Z,6.50
2022-08-18T19:56:33.887Z,6.07
2022-08-18T19:59:17.799Z,6.60
2022-08-18T20:01:52.528Z,6.00
2022-08-18T20:04:19.989Z,6.20
2022-08-18T20:07:06.738Z,6.32
2022-08-18T20:09:41.303Z,5.75
2022-08-18T20:12:11.672Z,6.18
2022-08-18T20:14:41.823Z,7.00
2022-08-18T20:17:18.222Z,5.93
2022-08-18T20:19:45.895Z,6.40
2022-08-18T20:22:24.300Z,6.43
2022-08-18T20:24:53.063Z,6.03
2022-08-18T20:27:23.601Z,6.07
2022-08-18T20:30:01.576Z,6.38
2022-08-18T20:32:32.185Z,6.50
2022-08-18T20:35:20.117Z,5.90
2022-08-18T20:37:47.931Z,5.03
2022-08-18T20:40:35.749Z,5.70
2022-08-18T20:43:07.149Z,5.38
2022-08-18T20:45:36.455Z,4.93
2022-08-18T20:48:33.830Z,4.82
2022-08-18T20:51:04.322Z,4.63
2022-08-18T20:53:32.859Z,5.35
2022-08-18T20:56:13.082Z,6.15
2022-08-18T20:59:03.936Z,4.63
2022-08-18T21:01:36.670Z,5.13
2022-08-18T21:04:04.849Z,5.00
2022-08-18T21:06:34.157Z,4.85
2022-08-18T21:09:02.127Z,4.97
2022-08-18T21:11:35.224Z,5.38
2022-08-18T21:14:04.387Z,4.95
2022-08-18T21:16:45.128Z,5.20
2022-08-18T21:19:26.664Z,5.72
2022-08-18T21:22:01.599Z,6.18
2022-08-18T21:24:34.329Z,5.85
2022-08-18T21:27:10.170Z,5.65
2022-08-18T21:29:47.370Z,5.78
2022-08-18T21:32:24.975Z,5.30
2022-08-18T21:34:52.829Z,5.60
2022-08-18T21:37:21.310Z,5.03
2022-08-18T21:39:54.088Z,5.82
2022-08-18T21:42:26.800Z,4.70
2022-08-18T21:44:55.485Z,4.60
2022-08-18T21:47:26.119Z,4.90
2022-08-18T21:50:03.037Z,4.97
2022-08-18T21:52:31.192Z,5.10
2022-08-18T21:55:02.344Z,5.32
2022-08-18T21:57:46.873Z,4.90
2022-08-18T22:00:20.455Z,5.10
2022-08-18T22:02:51.305Z,4.53
2022-08-18T22:05:58.892Z,3.90
2022-08-18T22:08:28.589Z,4.50
2022-08-18T22:11:59.840Z,3.92
2022-08-18T22:14:15.936Z,4.57
2022-08-18T22:16:45.076Z,4.43
2022-08-18T22:19:23.923Z,4.97
2022-08-18T22:21:59.599Z,4.25
2022-08-18T22:24:35.251Z,4.38
2022-08-18T22:27:15.264Z,3.72
2022-08-18T22:29:46.456Z,3.85
2022-08-18T22:32:14.163Z,4.40
2022-08-18T22:34:42.348Z,3.83
2022-08-18T22:37:10.152Z,4.55
2022-08-18T22:39:48.323Z,4.53
2022-08-18T22:42:17.180Z,3.80
2022-08-18T22:44:45.402Z,4.82
2022-08-18T22:47:13.096Z,4.28
2022-08-18T22:49:40.956Z,3.92
2022-08-18T22:52:12.349Z,3.40
2022-08-18T22:54:39.838Z,3.15
2022-08-18T22:57:11.308Z,3.67
2022-08-18T22:59:42.697Z,3.90
2022-08-18T23:02:11.384Z,3.67
2022-08-18T23:04:38.960Z,3.83
2022-08-18T23:07:06.970Z,4.15
2022-08-18T23:09:34.889Z,3.63
2022-08-18T23:12:04.664Z,4.05
2022-08-18T23:14:33.169Z,4.10
2022-08-18T23:17:01.433Z,3.45
2022-08-18T23:19:31.589Z,4.20
2022-08-18T23:21:59.703Z,3.72
2022-08-18T23:24:27.235Z,4.05
2022-08-18T23:26:54.795Z,3.83
2022-08-18T23:29:22.571Z,3.92
2022-08-18T23:31:50.791Z,3.40
2022-08-18T23:34:19.248Z,3.30
2022-08-18T23:36:51.943Z,3.90
2022-08-18T23:39:19.434Z,3.60
2022-08-18T23:41:46.943Z,3.15
2022-08-18T23:44:16.465Z,3.55
2022-08-18T23:46:44.686Z,3.40
2022-08-18T23:49:14.929Z,3.35
2022-08-18T23:51:51.026Z,3.13
2022-08-18T23:54:21.663Z,3.65
2022-08-18T23:56:49.674Z,3.40
2022-08-18T23:59:18.034Z,3.08
